CYYHCYGT

Guest
Details From CYYH - TALOYOAK
To CYGT - Igloolik
Flight Number -
Tags generated
Created
Modified
Stats Distance 326 nm / 604 km
Max Altitude 35,000 ft / 10,668 m
Waypoints 4
Social Downloads 0
Likes 0
Share VATSIM

Download

Looking for another format? Having issues loading an existing format? Contact us
Advertisement - Login to hide

Notes

Basic altitude profile: - Ascent Rate: 2500ft/min - Ascent Speed: 250kts - Cruise Altitude: 35000ft - Cruise Speed: 420kts - Descent Rate: 1500ft/min - Descent Speed: 250kts Options: - Use NATs: yes - Use PACOTS: yes - Use low airways: yes - Use high airways: yes

Route

CYYH YBB RR30 UX CYGT

ID Type Via Altitude (ft/m) Position (lat/lon) Dist (leg/tot) Name
O CYYH APT - 0 / 0 69.54611 / -93.57611 - / 0 nm TALOYOAK
YBB NDB - 35,000 / 10,668 68.53500 / -89.78778 101 / 101 nm KUGAARUK NDB
UX NDB RR30 (AWY-LO) 8,100 / 2,469 68.76722 / -81.25639 186 / 288 nm HALL BEACH NDB
O CYGT APT - 0 / 0 69.36482 / -81.81709 37 / 326 nm Igloolik

Altitude Profile

Advertisement - Login to hide

Weather


0- 5 10 15 20 25 30 35+ Temperature / °C

Clouds and Precipitation
Forecast for 2018-10-17 18:00 UTC. Updated an hour ago

Ground ~20,000 ft ~40,000 ft Winds

CYYH

Details ICAO CYYH (YYH)
Name TALOYOAK
Region Canada
Timezone America/Cambridge_Bay (UTC-6.0)
Stats Elevation 92 ft / 28 m (AMSL)
Location 69.546100° -93.576100°
Runways 1
Magnetic Variation 12.306° W

METAR

CYYH 171600Z 20005KT 10SM -SN OVC080 M11/M13 A2968 RMK AC8 VIS NE TO SE 2 SLP056

Decode

TAF

TAF CYYH 171138Z 1712/1724 VRB03KT P6SM -SN SCT020 OVC040 TEMPO 1712/1724 4SM -SHSN OVC020 RMK NXT FCST BY 171800Z

Decode

Departure Runways

ID Width Length Bearing (true/mag) Surface Threshold Overrun Markings Lighting
15T 100 ft / 30 m 4,008 ft / 1,222 m 151.85° / 164.16° GRAVEL 0 ft / 0 m 0 ft / 0 m VISUAL EDGE THRESHOLD REIL-OMNI
33T 100 ft / 30 m 4,008 ft / 1,222 m 331.87° / 344.17° GRAVEL 0 ft / 0 m 0 ft / 0 m VISUAL EDGE THRESHOLD REIL-OMNI

CYGT

Details ICAO CYGT (YGT)
Name Igloolik
Region Canada
Timezone America/Iqaluit (UTC-4.0)
Stats Elevation 98 ft / 30 m (AMSL)
Location 69.364800° -81.817100°
Runways 1
Magnetic Variation 27.386° W

METAR

CYGT 171600Z 35007KT 15SM FEW008 FEW064 M14/M16 A2970 RMK ST1SC1 SLP065

Decode

TAF

TAF AMD TAF AMD CYGT 171306Z 1713/1720 01010KT P6SM SCT060 TEMPO 1713/1720 BKN060 RMK NXT FCST WILL BE ISSUED AT 181045Z

Decode

Destination Runways

ID Width Length Bearing (true/mag) Surface Threshold Overrun Markings Lighting
15 98 ft / 30 m 4,502 ft / 1,372 m 145.64° / 173.02° DIRT 0 ft / 0 m 0 ft / 0 m NONE EDGE THRESHOLD
33 98 ft / 30 m 4,502 ft / 1,372 m 325.65° / 353.04° DIRT 0 ft / 0 m 0 ft / 0 m NONE EDGE THRESHOLD

Popular Alternatives